sensor_id;sensor_type;location;lat;lon;timestamp;pressure;altitude;pressure_sealevel;temperature;humidity
26937;BME280;14495;48.116;11.676;2022-09-09T00:04:05;95351.59;;;14.11;100.00
26937;BME280;14495;48.116;11.676;2022-09-09T00:06:45;95367.47;;;14.09;100.00
26937;BME280;14495;48.116;11.676;2022-09-09T00:09:21;95354.47;;;14.08;100.00
26937;BME280;14495;48.116;11.676;2022-09-09T00:11:55;95362.47;;;14.06;100.00
26937;BME280;14495;48.116;11.676;2022-09-09T00:14:37;95355.44;;;14.07;100.00
26937;BME280;14495;48.116;11.676;2022-09-09T00:17:11;95363.78;;;14.01;100.00
26937;BME280;14495;48.116;11.676;2022-09-09T00:19:59;95359.50;;;14.00;100.00
26937;BME280;14495;48.116;11.676;2022-09-09T00:22:29;95351.03;;;13.96;100.00
26937;BME280;14495;48.116;11.676;2022-09-09T00:25:10;95350.44;;;13.92;100.00
26937;BME280;14495;48.116;11.676;2022-09-09T00:27:41;95354.72;;;13.93;100.00
26937;BME280;14495;48.116;11.676;2022-09-09T00:30:20;95361.44;;;13.98;100.00
26937;BME280;14495;48.116;11.676;2022-09-09T00:32:49;95353.56;;;13.86;100.00
26937;BME280;14495;48.116;11.676;2022-09-09T00:35:29;95358.25;;;13.71;100.00
26937;BME280;14495;48.116;11.676;2022-09-09T00:37:57;95360.50;;;13.76;100.00
26937;BME280;14495;48.116;11.676;2022-09-09T00:43:12;95368.59;;;13.84;100.00
26937;BME280;14495;48.116;11.676;2022-09-09T00:46:04;95366.13;;;13.83;100.00
26937;BME280;14495;48.116;11.676;2022-09-09T00:51:52;95371.09;;;13.86;100.00
26937;BME280;14495;48.116;11.676;2022-09-09T00:54:25;95368.59;;;13.84;100.00
26937;BME280;14495;48.116;11.676;2022-09-09T01:00:31;95364.53;;;13.91;100.00
26937;BME280;14495;48.116;11.676;2022-09-09T01:05:46;95371.91;;;14.09;100.00
26937;BME280;14495;48.116;11.676;2022-09-09T01:10:53;95368.44;;;14.08;100.00
26937;BME280;14495;48.116;11.676;2022-09-09T01:13:24;95369.28;;;14.09;100.00
26937;BME280;14495;48.116;11.676;2022-09-09T01:15:50;95370.34;;;14.18;100.00
26937;BME280;14495;48.116;11.676;2022-09-09T01:18:20;95364.50;;;14.14;100.00
26937;BME280;14495;48.116;11.676;2022-09-09T01:20:55;95369.25;;;14.20;100.00
26937;BME280;14495;48.116;11.676;2022-09-09T01:23:57;95360.16;;;14.24;100.00
26937;BME280;14495;48.116;11.676;2022-09-09T01:26:33;95366.06;;;14.38;100.00
26937;BME280;14495;48.116;11.676;2022-09-09T01:29:00;95363.19;;;14.41;100.00
26937;BME280;14495;48.116;11.676;2022-09-09T01:31:33;95354.09;;;14.45;100.00
26937;BME280;14495;48.116;11.676;2022-09-09T01:34:01;95357.88;;;14.52;100.00
26937;BME280;14495;48.116;11.676;2022-09-09T01:36:35;95365.06;;;14.50;100.00
26937;BME280;14495;48.116;11.676;2022-09-09T01:39:03;95361.50;;;14.51;100.00
26937;BME280;14495;48.116;11.676;2022-09-09T01:41:28;95362.44;;;14.50;100.00
26937;BME280;14495;48.116;11.676;2022-09-09T01:43:55;95366.47;;;14.54;100.00
26937;BME280;14495;48.116;11.676;2022-09-09T01:46:22;95359.41;;;14.34;100.00
26937;BME280;14495;48.116;11.676;2022-09-09T01:48:48;95370.25;;;14.40;100.00
26937;BME280;14495;48.116;11.676;2022-09-09T01:51:14;95360.56;;;14.41;100.00
26937;BME280;14495;48.116;11.676;2022-09-09T01:53:40;95366.56;;;14.31;100.00
26937;BME280;14495;48.116;11.676;2022-09-09T01:56:13;95363.00;;;14.33;100.00
26937;BME280;14495;48.116;11.676;2022-09-09T02:01:49;95361.41;;;14.41;100.00
26937;BME280;14495;48.116;11.676;2022-09-09T02:04:45;95356.03;;;14.43;100.00
26937;BME280;14495;48.116;11.676;2022-09-09T02:07:25;95358.53;;;14.44;100.00
26937;BME280;14495;48.116;11.676;2022-09-09T02:10:20;95357.88;;;14.52;100.00
26937;BME280;14495;48.116;11.676;2022-09-09T02:12:55;95358.41;;;14.46;100.00
26937;BME280;14495;48.116;11.676;2022-09-09T02:15:30;95350.97;;;14.51;100.00
26937;BME280;14495;48.116;11.676;2022-09-09T02:17:58;95352.56;;;14.42;100.00
26937;BME280;14495;48.116;11.676;2022-09-09T02:20:27;95344.34;;;14.36;100.00
26937;BME280;14495;48.116;11.676;2022-09-09T02:22:53;95342.06;;;14.42;100.00
26937;BME280;14495;48.116;11.676;2022-09-09T02:25:22;95349.81;;;14.44;100.00
26937;BME280;14495;48.116;11.676;2022-09-09T02:27:50;95352.31;;;14.45;100.00
26937;BME280;14495;48.116;11.676;2022-09-09T02:30:18;95350.28;;;14.38;100.00
26937;BME280;14495;48.116;11.676;2022-09-09T02:32:44;95350.06;;;14.41;100.00
26937;BME280;14495;48.116;11.676;2022-09-09T02:35:15;95352.22;;;14.36;100.00
26937;BME280;14495;48.116;11.676;2022-09-09T02:37:42;95346.97;;;14.36;100.00
26937;BME280;14495;48.116;11.676;2022-09-09T02:40:12;95349.41;;;14.27;100.00
26937;BME280;14495;48.116;11.676;2022-09-09T02:42:45;95355.13;;;14.21;100.00
26937;BME280;14495;48.116;11.676;2022-09-09T02:45:14;95342.97;;;14.20;100.00
26937;BME280;14495;48.116;11.676;2022-09-09T02:48:14;95345.66;;;14.30;100.00
26937;BME280;14495;48.116;11.676;2022-09-09T02:51:16;95344.34;;;14.36;100.00
26937;BME280;14495;48.116;11.676;2022-09-09T02:53:54;95335.75;;;14.34;100.00
26937;BME280;14495;48.116;11.676;2022-09-09T02:56:21;95340.28;;;14.31;100.00
26937;BME280;14495;48.116;11.676;2022-09-09T02:58:50;95342.41;;;14.38;100.00
26937;BME280;14495;48.116;11.676;2022-09-09T03:01:17;95346.47;;;14.42;100.00
26937;BME280;14495;48.116;11.676;2022-09-09T03:03:42;95354.38;;;14.42;100.00
26937;BME280;14495;48.116;11.676;2022-09-09T03:06:09;95344.34;;;14.36;100.00
26937;BME280;14495;48.116;11.676;2022-09-09T03:08:37;95332.13;;;14.46;100.00
26937;BME280;14495;48.116;11.676;2022-09-09T03:11:02;95339.31;;;14.44;100.00
26937;BME280;14495;48.116;11.676;2022-09-09T03:13:27;95332.94;;;14.46;100.00
26937;BME280;14495;48.116;11.676;2022-09-09T03:15:53;95334.72;;;14.57;100.00
26937;BME280;14495;48.116;11.676;2022-09-09T03:18:18;95336.38;;;14.58;100.00
26937;BME280;14495;48.116;11.676;2022-09-09T03:20:46;95328.94;;;14.63;100.00
26937;BME280;14495;48.116;11.676;2022-09-09T03:23:14;95327.88;;;14.66;100.00
26937;BME280;14495;48.116;11.676;2022-09-09T03:25:46;95330.28;;;14.58;100.00
26937;BME280;14495;48.116;11.676;2022-09-09T03:28:11;95333.00;;;14.56;100.00
26937;BME280;14495;48.116;11.676;2022-09-09T03:30:36;95327.03;;;14.54;100.00
26937;BME280;14495;48.116;11.676;2022-09-09T03:33:02;95323.53;;;14.44;100.00
26937;BME280;14495;48.116;11.676;2022-09-09T03:35:29;95323.25;;;14.47;100.00
26937;BME280;14495;48.116;11.676;2022-09-09T03:37:54;95328.78;;;14.44;100.00
26937;BME280;14495;48.116;11.676;2022-09-09T03:40:21;95330.72;;;14.42;100.00
26937;BME280;14495;48.116;11.676;2022-09-09T03:42:46;95335.81;;;14.43;100.00
26937;BME280;14495;48.116;11.676;2022-09-09T03:45:13;95325.47;;;14.30;100.00
26937;BME280;14495;48.116;11.676;2022-09-09T03:47:38;95323.94;;;14.28;100.00
26937;BME280;14495;48.116;11.676;2022-09-09T03:50:05;95321.94;;;14.20;100.00
26937;BME280;14495;48.116;11.676;2022-09-09T03:52:35;95324.81;;;14.17;100.00
26937;BME280;14495;48.116;11.676;2022-09-09T03:55:00;95329.44;;;14.25;100.00
26937;BME280;14495;48.116;11.676;2022-09-09T03:57:26;95330.28;;;14.25;100.00
26937;BME280;14495;48.116;11.676;2022-09-09T03:59:51;95327.28;;;14.30;100.00
26937;BME280;14495;48.116;11.676;2022-09-09T04:02:17;95319.78;;;14.25;100.00
26937;BME280;14495;48.116;11.676;2022-09-09T04:04:42;95322.03;;;14.30;100.00
26937;BME280;14495;48.116;11.676;2022-09-09T04:07:07;95322.03;;;14.30;100.00
26937;BME280;14495;48.116;11.676;2022-09-09T04:09:33;95329.66;;;14.33;100.00
26937;BME280;14495;48.116;11.676;2022-09-09T04:11:58;95324.75;;;14.28;100.00
26937;BME280;14495;48.116;11.676;2022-09-09T04:14:24;95323.34;;;14.24;100.00
26937;BME280;14495;48.116;11.676;2022-09-09T04:16:54;95319.50;;;14.28;100.00
26937;BME280;14495;48.116;11.676;2022-09-09T04:19:22;95315.94;;;14.29;100.00
26937;BME280;14495;48.116;11.676;2022-09-09T04:21:47;95315.94;;;14.29;100.00
26937;BME280;14495;48.116;11.676;2022-09-09T04:24:15;95310.22;;;14.24;100.00
26937;BME280;14495;48.116;11.676;2022-09-09T04:26:41;95312.25;;;14.21;100.00
26937;BME280;14495;48.116;11.676;2022-09-09T04:29:06;95307.47;;;14.26;100.00
26937;BME280;14495;48.116;11.676;2022-09-09T04:31:33;95309.50;;;14.22;100.00
26937;BME280;14495;48.116;11.676;2022-09-09T04:33:58;95299.00;;;14.22;100.00
26937;BME280;14495;48.116;11.676;2022-09-09T04:36:27;95299.25;;;14.19;100.00
26937;BME280;14495;48.116;11.676;2022-09-09T04:38:52;95300.69;;;14.12;100.00
26937;BME280;14495;48.116;11.676;2022-09-09T04:41:18;95296.19;;;14.14;100.00
26937;BME280;14495;48.116;11.676;2022-09-09T04:43:43;95299.75;;;14.13;100.00
26937;BME280;14495;48.116;11.676;2022-09-09T04:46:09;95297.38;;;14.10;100.00
26937;BME280;14495;48.116;11.676;2022-09-09T04:48:34;95302.44;;;14.02;100.00
26937;BME280;14495;48.116;11.676;2022-09-09T04:51:05;95302.19;;;13.93;100.00
26937;BME280;14495;48.116;11.676;2022-09-09T04:53:31;95307.00;;;13.88;100.00
26937;BME280;14495;48.116;11.676;2022-09-09T04:56:15;95306.25;;;13.98;100.00
26937;BME280;14495;48.116;11.676;2022-09-09T04:58:41;95301.00;;;13.98;100.00
26937;BME280;14495;48.116;11.676;2022-09-09T05:01:16;95296.34;;;14.01;100.00
26937;BME280;14495;48.116;11.676;2022-09-09T05:03:45;95295.25;;;14.04;100.00
26937;BME280;14495;48.116;11.676;2022-09-09T05:06:13;95295.25;;;14.04;100.00
26937;BME280;14495;48.116;11.676;2022-09-09T05:08:40;95304.31;;;14.11;100.00
26937;BME280;14495;48.116;11.676;2022-09-09T05:11:22;95300.97;;;14.09;100.00
26937;BME280;14495;48.116;11.676;2022-09-09T05:13:51;95310.91;;;14.05;100.00
26937;BME280;14495;48.116;11.676;2022-09-09T05:16:17;95306.94;;;14.11;100.00
26937;BME280;14495;48.116;11.676;2022-09-09T05:18:43;95315.06;;;14.08;100.00
26937;BME280;14495;48.116;11.676;2022-09-09T05:21:10;95313.09;;;14.21;100.00
26937;BME280;14495;48.116;11.676;2022-09-09T05:23:35;95316.28;;;14.36;100.00
26937;BME280;14495;48.116;11.676;2022-09-09T05:26:02;95323.66;;;14.42;100.00
26937;BME280;14495;48.116;11.676;2022-09-09T05:28:28;95325.84;;;14.58;100.00
26937;BME280;14495;48.116;11.676;2022-09-09T05:31:02;95315.44;;;14.68;100.00
26937;BME280;14495;48.116;11.676;2022-09-09T05:33:34;95320.03;;;14.76;100.00
26937;BME280;14495;48.116;11.676;2022-09-09T05:36:01;95313.56;;;14.80;100.00
26937;BME280;14495;48.116;11.676;2022-09-09T05:38:28;95327.41;;;14.82;100.00
26937;BME280;14495;48.116;11.676;2022-09-09T05:40:54;95316.84;;;14.72;100.00
26937;BME280;14495;48.116;11.676;2022-09-09T05:43:22;95319.00;;;14.67;100.00
26937;BME280;14495;48.116;11.676;2022-09-09T05:45:48;95317.34;;;14.55;100.00
26937;BME280;14495;48.116;11.676;2022-09-09T05:48:14;95331.84;;;14.60;100.00
26937;BME280;14495;48.116;11.676;2022-09-09T05:50:41;95321.50;;;14.68;100.00
26937;BME280;14495;48.116;11.676;2022-09-09T05:53:08;95322.69;;;14.76;100.00
26937;BME280;14495;48.116;11.676;2022-09-09T05:55:33;95319.50;;;14.82;100.00
26937;BME280;14495;48.116;11.676;2022-09-09T05:57:59;95314.47;;;14.90;100.00
26937;BME280;14495;48.116;11.676;2022-09-09T06:00:25;95321.13;;;14.94;100.00
26937;BME280;14495;48.116;11.676;2022-09-09T06:02:51;95325.09;;;14.88;100.00
26937;BME280;14495;48.116;11.676;2022-09-09T06:05:18;95323.06;;;14.92;100.00
26937;BME280;14495;48.116;11.676;2022-09-09T06:07:43;95325.84;;;15.00;100.00
26937;BME280;14495;48.116;11.676;2022-09-09T06:10:10;95335.59;;;15.10;100.00
26937;BME280;14495;48.116;11.676;2022-09-09T06:12:35;95334.13;;;15.17;100.00
26937;BME280;14495;48.116;11.676;2022-09-09T06:15:01;95340.28;;;15.27;100.00
26937;BME280;14495;48.116;11.676;2022-09-09T06:17:26;95340.69;;;15.32;100.00
26937;BME280;14495;48.116;11.676;2022-09-09T06:19:52;95327.44;;;15.43;100.00
26937;BME280;14495;48.116;11.676;2022-09-09T06:22:17;95334.94;;;15.48;100.00
26937;BME280;14495;48.116;11.676;2022-09-09T06:24:42;95334.94;;;15.48;100.00
26937;BME280;14495;48.116;11.676;2022-09-09T06:27:08;95332.00;;;15.41;100.00
26937;BME280;14495;48.116;11.676;2022-09-09T06:29:34;95332.34;;;15.58;100.00
26937;BME280;14495;48.116;11.676;2022-09-09T06:31:59;95331.78;;;15.54;100.00
26937;BME280;14495;48.116;11.676;2022-09-09T06:34:25;95334.94;;;15.48;100.00
26937;BME280;14495;48.116;11.676;2022-09-09T06:36:51;95336.22;;;15.54;100.00
26937;BME280;14495;48.116;11.676;2022-09-09T06:39:17;95332.91;;;15.61;100.00
26937;BME280;14495;48.116;11.676;2022-09-09T06:41:42;95333.22;;;15.68;100.00
26937;BME280;14495;48.116;11.676;2022-09-09T06:44:07;95338.69;;;15.45;100.00
26937;BME280;14495;48.116;11.676;2022-09-09T06:46:33;95340.81;;;15.61;100.00
26937;BME280;14495;48.116;11.676;2022-09-09T06:48:59;95339.88;;;15.72;100.00
26937;BME280;14495;48.116;11.676;2022-09-09T06:51:27;95342.06;;;15.88;100.00
26937;BME280;14495;48.116;11.676;2022-09-09T06:53:55;95348.94;;;15.79;100.00
26937;BME280;14495;48.116;11.676;2022-09-09T06:56:26;95342.75;;;15.90;100.00
26937;BME280;14495;48.116;11.676;2022-09-09T06:58:54;95341.88;;;15.80;100.00
26937;BME280;14495;48.116;11.676;2022-09-09T07:01:25;95339.53;;;15.77;100.00
26937;BME280;14495;48.116;11.676;2022-09-09T07:03:52;95348.16;;;15.89;100.00
26937;BME280;14495;48.116;11.676;2022-09-09T07:06:27;95347.97;;;15.80;100.00
26937;BME280;14495;48.116;11.676;2022-09-09T07:08:55;95345.50;;;15.89;100.00
26937;BME280;14495;48.116;11.676;2022-09-09T07:11:22;95355.34;;;15.87;100.00
26937;BME280;14495;48.116;11.676;2022-09-09T07:13:48;95344.25;;;15.93;100.00
26937;BME280;14495;48.116;11.676;2022-09-09T07:16:16;95345.53;;;15.98;100.00
26937;BME280;14495;48.116;11.676;2022-09-09T07:18:42;95351.09;;;16.15;100.00
26937;BME280;14495;48.116;11.676;2022-09-09T07:21:10;95355.13;;;16.19;100.00
26937;BME280;14495;48.116;11.676;2022-09-09T07:23:35;95357.06;;;16.27;100.00
26937;BME280;14495;48.116;11.676;2022-09-09T07:26:01;95352.94;;;16.34;100.00
26937;BME280;14495;48.116;11.676;2022-09-09T07:28:26;95363.75;;;16.31;100.00
26937;BME280;14495;48.116;11.676;2022-09-09T07:30:57;95366.34;;;16.01;100.00
26937;BME280;14495;48.116;11.676;2022-09-09T07:33:24;95381.06;;;16.14;100.00
26937;BME280;14495;48.116;11.676;2022-09-09T07:35:50;95394.22;;;16.04;100.00
26937;BME280;14495;48.116;11.676;2022-09-09T07:38:16;95411.13;;;15.92;100.00
26937;BME280;14495;48.116;11.676;2022-09-09T07:40:41;95407.50;;;15.93;100.00
26937;BME280;14495;48.116;11.676;2022-09-09T07:43:07;95398.66;;;16.03;100.00
26937;BME280;14495;48.116;11.676;2022-09-09T07:45:34;95412.69;;;16.14;100.00
26937;BME280;14495;48.116;11.676;2022-09-09T07:48:00;95409.50;;;16.10;100.00
26937;BME280;14495;48.116;11.676;2022-09-09T07:50:25;95414.81;;;16.30;100.00
26937;BME280;14495;48.116;11.676;2022-09-09T07:52:51;95411.94;;;16.42;100.00
26937;BME280;14495;48.116;11.676;2022-09-09T07:55:17;95422.47;;;16.52;100.00
26937;BME280;14495;48.116;11.676;2022-09-09T07:57:42;95422.78;;;16.69;100.00
26937;BME280;14495;48.116;11.676;2022-09-09T08:00:08;95424.03;;;16.65;100.00
26937;BME280;14495;48.116;11.676;2022-09-09T08:02:35;95421.69;;;16.91;100.00
26937;BME280;14495;48.116;11.676;2022-09-09T08:05:00;95417.66;;;17.06;100.00
26937;BME280;14495;48.116;11.676;2022-09-09T08:07:26;95412.09;;;17.09;100.00
26937;BME280;14495;48.116;11.676;2022-09-09T08:09:52;95426.97;;;17.10;100.00
26937;BME280;14495;48.116;11.676;2022-09-09T08:12:19;95421.41;;;17.23;100.00
26937;BME280;14495;48.116;11.676;2022-09-09T08:14:44;95426.81;;;17.22;100.00
26937;BME280;14495;48.116;11.676;2022-09-09T08:17:10;95429.19;;;17.15;100.00
26937;BME280;14495;48.116;11.676;2022-09-09T08:19:35;95433.19;;;17.19;100.00
26937;BME280;14495;48.116;11.676;2022-09-09T08:22:01;95427.94;;;16.99;100.00
26937;BME280;14495;48.116;11.676;2022-09-09T08:24:28;95434.31;;;17.16;100.00
26937;BME280;14495;48.116;11.676;2022-09-09T08:26:53;95436.13;;;16.96;100.00
26937;BME280;14495;48.116;11.676;2022-09-09T08:29:19;95443.63;;;16.91;100.00
26937;BME280;14495;48.116;11.676;2022-09-09T08:31:47;95451.72;;;16.99;100.00
26937;BME280;14495;48.116;11.676;2022-09-09T08:34:13;95447.94;;;17.12;100.00
26937;BME280;14495;48.116;11.676;2022-09-09T08:36:43;95454.88;;;17.13;100.00
26937;BME280;14495;48.116;11.676;2022-09-09T08:39:12;95450.03;;;17.18;100.00
26937;BME280;14495;48.116;11.676;2022-09-09T08:52:22;95453.19;;;17.31;100.00
26937;BME280;14495;48.116;11.676;2022-09-09T08:54:51;95446.78;;;17.53;100.00
26937;BME280;14495;48.116;11.676;2022-09-09T08:57:23;95443.84;;;17.56;100.00
26937;BME280;14495;48.116;11.676;2022-09-09T08:59:54;95438.97;;;17.52;100.00
26937;BME280;14495;48.116;11.676;2022-09-09T09:02:39;95439.41;;;17.57;100.00
26937;BME280;14495;48.116;11.676;2022-09-09T09:08:12;95443.78;;;17.29;100.00
26937;BME280;14495;48.116;11.676;2022-09-09T09:10:49;95436.53;;;17.21;100.00
26937;BME280;14495;48.116;11.676;2022-09-09T09:13:19;95443.63;;;17.11;100.00
26937;BME280;14495;48.116;11.676;2022-09-09T09:15:55;95438.78;;;16.96;100.00
26937;BME280;14495;48.116;11.676;2022-09-09T09:18:24;95441.13;;;17.09;100.00
26937;BME280;14495;48.116;11.676;2022-09-09T09:21:18;95440.16;;;17.20;100.00
26937;BME280;14495;48.116;11.676;2022-09-09T09:23:58;95441.00;;;17.11;100.00
26937;BME280;14495;48.116;11.676;2022-09-09T09:26:30;95449.59;;;16.93;100.00
26937;BME280;14495;48.116;11.676;2022-09-09T09:28:58;95448.34;;;17.17;100.00
26937;BME280;14495;48.116;11.676;2022-09-09T09:31:24;95449.06;;;16.99;100.00
26937;BME280;14495;48.116;11.676;2022-09-09T09:33:52;95447.81;;;17.23;100.00
26937;BME280;14495;48.116;11.676;2022-09-09T09:36:21;95444.03;;;17.26;100.00
26937;BME280;14495;48.116;11.676;2022-09-09T09:38:56;95450.19;;;17.07;100.00
26937;BME280;14495;48.116;11.676;2022-09-09T09:41:35;95455.44;;;17.26;100.00
26937;BME280;14495;48.116;11.676;2022-09-09T09:44:03;95455.31;;;17.18;100.00
26937;BME280;14495;48.116;11.676;2022-09-09T09:46:28;95446.81;;;17.24;100.00
26937;BME280;14495;48.116;11.676;2022-09-09T09:49:02;95456.25;;;17.36;100.00
26937;BME280;14495;48.116;11.676;2022-09-09T09:51:29;95458.63;;;17.20;100.00
26937;BME280;14495;48.116;11.676;2022-09-09T09:54:49;95461.84;;;17.24;100.00
26937;BME280;14495;48.116;11.676;2022-09-09T09:56:49;95459.06;;;17.25;100.00
26937;BME280;14495;48.116;11.676;2022-09-09T10:01:53;95463.75;;;17.51;100.00
26937;BME280;14495;48.116;11.676;2022-09-09T10:04:21;95464.75;;;17.40;100.00
26937;BME280;14495;48.116;11.676;2022-09-09T10:06:49;95465.66;;;17.49;100.00
26937;BME280;14495;48.116;11.676;2022-09-09T10:09:26;95455.97;;;17.39;100.00
26937;BME280;14495;48.116;11.676;2022-09-09T10:22:44;95458.31;;;17.43;100.00
26937;BME280;14495;48.116;11.676;2022-09-09T10:25:24;95458.50;;;17.22;100.00
26937;BME280;14495;48.116;11.676;2022-09-09T10:36:17;95456.69;;;17.42;100.00
26937;BME280;14495;48.116;11.676;2022-09-09T10:38:46;95459.56;;;17.48;100.00
26937;BME280;14495;48.116;11.676;2022-09-09T10:52:01;95465.25;;;18.10;100.00
26937;BME280;14495;48.116;11.676;2022-09-09T10:57:22;95456.56;;;18.73;100.00
26937;BME280;14495;48.116;11.676;2022-09-09T10:59:53;95461.19;;;18.62;100.00
26937;BME280;14495;48.116;11.676;2022-09-09T11:02:28;95464.00;;;18.88;100.00
26937;BME280;14495;48.116;11.676;2022-09-09T11:07:43;95464.59;;;18.36;100.00
26937;BME280;14495;48.116;11.676;2022-09-09T11:10:39;95458.34;;;18.27;100.00
26937;BME280;14495;48.116;11.676;2022-09-09T11:13:21;95467.03;;;18.47;100.00
26937;BME280;14495;48.116;11.676;2022-09-09T11:15:53;95460.16;;;18.54;100.00
26937;BME280;14495;48.116;11.676;2022-09-09T11:18:21;95457.88;;;18.14;100.00
26937;BME280;14495;48.116;11.676;2022-09-09T11:20:51;95455.84;;;18.26;100.00
26937;BME280;14495;48.116;11.676;2022-09-09T11:23:26;95454.09;;;18.44;100.00
26937;BME280;14495;48.116;11.676;2022-09-09T11:25:57;95464.94;;;18.23;100.00
26937;BME280;14495;48.116;11.676;2022-09-09T11:28:54;95453.47;;;18.05;100.00
26937;BME280;14495;48.116;11.676;2022-09-09T11:37:21;95457.53;;;18.54;100.00
26937;BME280;14495;48.116;11.676;2022-09-09T11:40:00;95448.16;;;18.78;100.00
26937;BME280;14495;48.116;11.676;2022-09-09T11:42:30;95451.44;;;18.90;100.00
26937;BME280;14495;48.116;11.676;2022-09-09T11:44:55;95449.25;;;19.21;100.00
26937;BME280;14495;48.116;11.676;2022-09-09T11:47:27;95446.59;;;19.21;100.00
26937;BME280;14495;48.116;11.676;2022-09-09T11:52:42;95442.63;;;19.69;100.00
26937;BME280;14495;48.116;11.676;2022-09-09T11:55:31;95453.03;;;19.45;100.00
26937;BME280;14495;48.116;11.676;2022-09-09T11:58:14;95445.22;;;19.61;100.00
26937;BME280;14495;48.116;11.676;2022-09-09T12:03:43;95450.59;;;19.25;100.00
26937;BME280;14495;48.116;11.676;2022-09-09T12:06:20;95448.91;;;19.24;100.00
26937;BME280;14495;48.116;11.676;2022-09-09T12:08:53;95448.88;;;18.98;100.00
26937;BME280;14495;48.116;11.676;2022-09-09T12:11:27;95449.03;;;18.69;100.00
26937;BME280;14495;48.116;11.676;2022-09-09T12:13:56;95445.81;;;18.75;100.00
26937;BME280;14495;48.116;11.676;2022-09-09T12:16:35;95445.78;;;18.57;100.00
26937;BME280;14495;48.116;11.676;2022-09-09T12:21:51;95442.91;;;18.50;100.00
26937;BME280;14495;48.116;11.676;2022-09-09T12:24:29;95445.50;;;18.78;100.00
26937;BME280;14495;48.116;11.676;2022-09-09T12:30:12;95438.22;;;18.80;100.00
26937;BME280;14495;48.116;11.676;2022-09-09T12:32:39;95434.50;;;19.01;100.00
26937;BME280;14495;48.116;11.676;2022-09-09T12:35:27;95437.81;;;18.85;100.00
26937;BME280;14495;48.116;11.676;2022-09-09T12:38:01;95429.41;;;19.07;100.00
26937;BME280;14495;48.116;11.676;2022-09-09T12:40:33;95428.16;;;19.38;100.00
26937;BME280;14495;48.116;11.676;2022-09-09T12:43:01;95435.44;;;19.36;100.00
26937;BME280;14495;48.116;11.676;2022-09-09T12:45:29;95436.47;;;19.43;100.00
26937;BME280;14495;48.116;11.676;2022-09-09T12:47:57;95431.94;;;19.79;100.00
26937;BME280;14495;48.116;11.676;2022-09-09T12:50:28;95427.56;;;19.96;100.00
26937;BME280;14495;48.116;11.676;2022-09-09T12:52:56;95426.91;;;20.02;100.00
26937;BME280;14495;48.116;11.676;2022-09-09T12:55:35;95423.19;;;19.87;100.00
26937;BME280;14495;48.116;11.676;2022-09-09T12:58:02;95415.22;;;21.79;79.55
26937;BME280;14495;48.116;11.676;2022-09-09T13:00:31;95415.13;;;22.12;74.73
26937;BME280;14495;48.116;11.676;2022-09-09T13:02:58;95420.06;;;21.67;77.42
26937;BME280;14495;48.116;11.676;2022-09-09T13:05:25;95410.28;;;21.02;90.68
26937;BME280;14495;48.116;11.676;2022-09-09T13:07:51;95409.28;;;21.03;89.98
26937;BME280;14495;48.116;11.676;2022-09-09T13:10:28;95404.53;;;20.47;97.94
26937;BME280;14495;48.116;11.676;2022-09-09T13:12:54;95406.78;;;20.26;100.00
26937;BME280;14495;48.116;11.676;2022-09-09T13:15:24;95398.66;;;20.19;100.00
26937;BME280;14495;48.116;11.676;2022-09-09T13:17:57;95398.31;;;19.80;100.00
26937;BME280;14495;48.116;11.676;2022-09-09T13:20:25;95401.66;;;19.38;100.00
26937;BME280;14495;48.116;11.676;2022-09-09T13:23:56;95400.59;;;20.09;100.00
26937;BME280;14495;48.116;11.676;2022-09-09T13:26:24;95396.72;;;20.46;100.00
26937;BME280;14495;48.116;11.676;2022-09-09T15:18:21;95381.47;;;17.46;100.00
26937;BME280;14495;48.116;11.676;2022-09-09T15:20:46;95373.41;;;17.37;100.00
26937;BME280;14495;48.116;11.676;2022-09-09T15:23:13;95371.50;;;17.20;100.00
26937;BME280;14495;48.116;11.676;2022-09-09T15:25:39;95374.56;;;17.25;100.00
26937;BME280;14495;48.116;11.676;2022-09-09T15:28:14;95376.34;;;17.34;100.00
26937;BME280;14495;48.116;11.676;2022-09-09T15:30:39;95379.03;;;17.15;100.00
26937;BME280;14495;48.116;11.676;2022-09-09T15:33:08;95372.22;;;17.12;100.00
26937;BME280;14495;48.116;11.676;2022-09-09T15:35:33;95363.00;;;17.26;100.00
26937;BME280;14495;48.116;11.676;2022-09-09T15:38:02;95367.47;;;17.26;100.00
26937;BME280;14495;48.116;11.676;2022-09-09T15:40:27;95360.66;;;17.33;100.00
26937;BME280;14495;48.116;11.676;2022-09-09T15:42:52;95367.34;;;17.27;100.00
26937;BME280;14495;48.116;11.676;2022-09-09T15:45:18;95366.66;;;17.25;100.00
26937;BME280;14495;48.116;11.676;2022-09-09T15:47:43;95363.31;;;17.23;100.00
26937;BME280;14495;48.116;11.676;2022-09-09T15:50:10;95359.28;;;17.29;100.00
26937;BME280;14495;48.116;11.676;2022-09-09T15:52:35;95359.38;;;17.37;100.00
26937;BME280;14495;48.116;11.676;2022-09-09T15:55:01;95359.00;;;17.69;100.00
26937;BME280;14495;48.116;11.676;2022-09-09T15:57:26;95353.41;;;17.72;100.00
26937;BME280;14495;48.116;11.676;2022-09-09T15:59:51;95345.94;;;17.58;100.00
26937;BME280;14495;48.116;11.676;2022-09-09T16:02:16;95331.97;;;17.48;100.00
26937;BME280;14495;48.116;11.676;2022-09-09T16:04:43;95341.16;;;17.44;100.00
26937;BME280;14495;48.116;11.676;2022-09-09T16:07:08;95337.25;;;17.75;100.00
26937;BME280;14495;48.116;11.676;2022-09-09T16:09:34;95336.13;;;17.78;100.00
26937;BME280;14495;48.116;11.676;2022-09-09T16:12:01;95344.69;;;17.62;100.00
26937;BME280;14495;48.116;11.676;2022-09-09T16:14:28;95338.41;;;17.63;100.00